Terminal Aerodrome Forecast
Issued by NWS Northern Indiana

Home | Current Version | Previous Version | Graphics & Text | Print | Product List | Glossary On
Versions: 1 2 3 4 5 6 7 8 9 10 11 12 13 14
000
FTUS43 KIWX 270500
TAFFWA
TAF
KFWA 270529Z 2706/2806 22008KT P6SM SCT030 BKN060
     FM271400 23015G22KT P6SM SCT030
     FM271700 25016G25KT P6SM VCTS BKN045CB
     FM272100 27014G24KT P6SM BKN050
     FM280000 29006KT P6SM SCT050=

USA.gov is the U.S. government's official web portal to all federal, state and local government web resources and services.